Time;durP1;ratioP1;P1;durP2;ratioP2;P2;SDS_P1;SDS_P2;PMS_P1;PMS_P2;Temp;Humidity;BMP_temperature;BMP_pressure;BME280_temperature;BME280_humidity;BME280_pressure;Samples;Min_cycle;Max_cycle;Signal;HPM_P1;HPM_P2
2023/01/13 00:00:04;;;;;;;44.17;5.65;;;;;;;3.19;82.14;101183.03;10455462;28;20049;-74
2023/01/13 00:05:05;;;;;;;37.20;6.00;;;;;;;3.38;82.22;101219.47;10454900;28;20072;-73
2023/01/13 00:10:10;;;;;;;32.72;5.60;;;;;;;3.29;82.08;101204.31;10453868;28;20095;-73
2023/01/13 00:15:12;;;;;;;50.38;6.10;;;;;;;3.33;82.11;101207.59;10453706;28;20045;-73
2023/01/13 00:20:12;;;;;;;43.05;5.45;;;;;;;2.82;82.52;101116.34;10453667;28;20056;-73
2023/01/13 00:25:13;;;;;;;30.15;5.63;;;;;;;3.13;82.54;101169.47;10453837;28;20041;-75
2023/01/13 00:30:14;;;;;;;38.55;5.97;;;;;;;3.38;81.92;101218.59;10454322;28;20051;-74
2023/01/13 00:35:15;;;;;;;34.95;5.60;;;;;;;3.06;81.80;101169.03;10454031;28;20523;-73
2023/01/13 00:40:16;;;;;;;24.38;5.05;;;;;;;3.10;82.08;101178.41;10453702;28;20099;-74
2023/01/13 00:45:17;;;;;;;36.50;5.50;;;;;;;3.31;81.69;101214.72;10453963;28;20055;-74
2023/01/13 00:50:17;;;;;;;44.10;5.47;;;;;;;3.21;82.27;101190.84;10454174;28;20163;-73
2023/01/13 00:55:18;;;;;;;30.85;5.32;;;;;;;3.16;81.92;101198.16;10453621;28;20032;-73
2023/01/13 01:00:19;;;;;;;31.10;5.05;;;;;;;3.28;81.73;101199.16;10453118;28;20072;-75
2023/01/13 01:05:20;;;;;;;39.60;6.47;;;;;;;3.09;81.31;101166.22;10453659;28;20479;-74
2023/01/13 01:10:21;;;;;;;29.83;4.47;;;;;;;3.06;81.55;101187.41;10453833;28;20135;-74
2023/01/13 01:15:21;;;;;;;34.72;5.32;;;;;;;2.93;81.00;101160.25;10452741;28;20075;-74
2023/01/13 01:20:22;;;;;;;29.98;4.07;;;;;;;2.97;81.40;101165.22;10453102;28;20033;-74
2023/01/13 01:25:23;;;;;;;40.33;5.20;;;;;;;3.00;81.41;101176.47;10453752;28;20119;-74
2023/01/13 01:30:24;;;;;;;30.92;4.57;;;;;;;2.97;81.38;101180.13;10452828;28;20053;-74
2023/01/13 01:35:24;;;;;;;34.28;5.82;;;;;;;3.09;82.16;101202.97;10459062;28;20048;-74
2023/01/13 01:40:26;;;;;;;43.85;5.45;;;;;;;2.65;81.73;101117.44;10460123;28;20489;-74
2023/01/13 01:45:29;;;;;;;35.33;5.40;;;;;;;2.84;81.54;101159.09;10460014;28;20488;-74
2023/01/13 01:50:31;;;;;;;28.60;5.40;;;;;;;2.73;81.80;101149.28;10460201;28;20044;-74
2023/01/13 01:55:35;;;;;;;36.58;5.10;;;;;;;2.26;81.72;101068.34;10459370;28;20033;-73
2023/01/13 02:00:36;;;;;;;36.05;5.07;;;;;;;2.67;81.53;101143.59;10459478;28;20041;-74
2023/01/13 02:05:37;;;;;;;54.03;6.43;;;;;;;3.06;82.25;101207.59;10459397;28;20126;-73
2023/01/13 02:10:40;;;;;;;46.38;6.50;;;;;;;3.03;82.20;101205.16;10458283;28;20484;-74
2023/01/13 02:16:07;;;;;;;41.50;6.65;;;;;;;3.12;82.82;101220.31;10459628;28;20045;-73
2023/01/13 02:21:17;;;;;;;50.42;5.97;;;;;;;2.96;82.61;101178.44;10458272;28;20076;-73
2023/01/13 02:26:55;;;;;;;45.08;6.10;;;;;;;3.14;83.19;101211.41;10458009;28;20550;-74
2023/01/13 02:32:15;;;;;;;37.38;6.72;;;;;;;2.93;83.56;101184.75;10457654;28;20404;-73
2023/01/13 02:37:26;;;;;;;43.65;6.45;;;;;;;2.58;83.64;101128.44;10458505;28;20086;-74
2023/01/13 02:48:14;;;;;;;50.72;6.20;;;;;;;2.81;83.60;101174.16;10457778;28;20041;-79
2023/01/13 02:53:36;;;;;;;53.73;6.20;;;;;;;2.58;84.25;101137.13;10456066;28;20090;-74
2023/01/13 02:58:39;;;;;;;52.97;7.00;;;;;;;2.70;84.13;101164.38;10415386;28;20076;-73
2023/01/13 03:03:40;;;;;;;52.47;6.53;;;;;;;2.89;84.84;101198.16;10453776;28;20064;-78
2023/01/13 03:09:10;;;;;;;53.97;6.93;;;;;;;2.97;84.76;101195.88;10452464;28;20652;-76
2023/01/13 03:14:27;;;;;;;60.72;7.72;;;;;;;2.89;84.55;101185.03;10453791;28;20053;-76
2023/01/13 03:19:56;;;;;;;47.17;6.47;;;;;;;2.99;84.49;101199.22;10456457;28;20133;-74
2023/01/13 03:25:21;;;;;;;46.28;6.72;;;;;;;2.96;84.68;101192.44;10450427;28;20068;-77
2023/01/13 03:30:29;;;;;;;57.70;6.97;;;;;;;2.69;84.32;101145.16;10451727;28;20052;-73
2023/01/13 03:35:37;;;;;;;46.97;6.47;;;;;;;2.96;84.39;101195.06;10452452;28;20443;-73
2023/01/13 03:41:00;;;;;;;38.55;6.18;;;;;;;3.05;84.56;101198.00;10454051;28;20052;-73
2023/01/13 03:46:09;;;;;;;60.00;7.43;;;;;;;2.77;83.72;101154.31;10414377;28;20033;-73
2023/01/13 03:51:16;;;;;;;44.65;7.00;;;;;;;3.04;84.23;101215.53;10468615;28;20405;-73
2023/01/13 03:56:29;;;;;;;47.60;5.43;;;;;;;2.13;84.01;101063.06;10454725;28;20044;-74
2023/01/13 04:01:41;;;;;;;36.38;6.25;;;;;;;2.57;84.75;101130.19;10454395;28;20186;-74
2023/01/13 04:06:48;;;;;;;44.15;6.65;;;;;;;3.07;84.33;101214.50;10454329;28;20045;-74
2023/01/13 04:11:55;;;;;;;43.35;6.15;;;;;;;2.52;84.73;101129.66;10455098;28;20093;-73
2023/01/13 04:16:56;;;;;;;39.72;6.07;;;;;;;2.99;84.06;101207.09;10455131;28;20087;-72
2023/01/13 04:21:56;;;;;;;35.70;6.22;;;;;;;2.89;83.53;101190.28;10454258;28;20045;-73
2023/01/13 04:26:57;;;;;;;55.72;6.03;;;;;;;3.09;83.49;101228.38;10453938;28;20059;-76
2023/01/13 04:31:58;;;;;;;47.38;6.88;;;;;;;3.07;83.52;101223.22;10452840;28;20041;-73
2023/01/13 04:36:59;;;;;;;42.72;7.18;;;;;;;2.84;83.78;101194.97;10465715;28;20151;-74
2023/01/13 04:42:01;;;;;;;48.90;5.93;;;;;;;2.61;83.62;101150.06;10495108;28;20134;-74
2023/01/13 04:47:02;;;;;;;44.20;6.25;;;;;;;3.04;83.71;101218.16;10473305;28;20041;-72
2023/01/13 04:52:05;;;;;;;40.63;6.43;;;;;;;2.72;83.81;101167.72;10453955;28;20041;-77
2023/01/13 04:57:06;;;;;;;43.47;6.93;;;;;;;2.26;83.41;101103.28;10453832;28;20045;-74
2023/01/13 05:02:08;;;;;;;36.08;6.75;;;;;;;2.88;83.97;101220.94;10453195;28;20124;-75
2023/01/13 05:07:08;;;;;;;40.83;7.07;;;;;;;2.62;84.01;101170.09;10452136;28;20045;-74
2023/01/13 05:17:30;;;;;;;33.00;6.07;;;;;;;2.97;84.44;101230.00;10461199;28;20049;-74
2023/01/13 05:27:53;;;;;;;32.95;4.93;;;;;;;3.03;83.38;101221.75;10460886;28;20041;-74
2023/01/13 05:32:53;;;;;;;29.60;5.30;;;;;;;3.00;83.02;101205.34;10460619;28;20044;-74
2023/01/13 05:37:54;;;;;;;40.45;5.05;;;;;;;3.06;82.60;101218.09;10459669;28;20041;-74
2023/01/13 05:43:19;;;;;;;35.00;5.82;;;;;;;3.24;82.88;101237.06;10459723;28;20497;-74
2023/01/13 05:48:22;;;;;;;37.15;5.20;;;;;;;3.17;82.73;101226.97;10457470;28;20041;-77
2023/01/13 05:53:23;;;;;;;30.20;4.15;;;;;;;3.04;82.89;101194.53;10458277;28;20040;-75
2023/01/13 05:58:25;;;;;;;24.13;4.38;;;;;;;2.88;82.58;101165.81;10459380;28;20045;-76
2023/01/13 06:03:26;;;;;;;44.88;5.40;;;;;;;3.32;82.55;101245.25;10458965;28;20080;-75
2023/01/13 06:08:27;;;;;;;22.50;4.00;;;;;;;2.92;82.53;101169.91;10458754;28;20484;-74
2023/01/13 06:13:28;;;;;;;44.25;5.25;;;;;;;3.35;82.25;101239.81;10459454;28;20442;-75
2023/01/13 06:18:28;;;;;;;29.00;4.43;;;;;;;3.45;82.03;101245.34;10458209;28;20037;-74
2023/01/13 06:23:33;;;;;;;34.40;4.65;;;;;;;2.98;80.67;101152.94;10458057;28;20064;-75
2023/01/13 06:28:34;;;;;;;41.10;5.05;;;;;;;3.62;79.64;101243.28;10458309;28;20049;-75
2023/01/13 06:33:44;;;;;;;26.83;4.32;;;;;;;3.49;79.46;101195.13;10457976;28;20044;-77
2023/01/13 06:38:48;;;;;;;37.17;4.47;;;;;;;3.51;80.07;101211.63;10457163;28;20052;-74
2023/01/13 06:43:49;;;;;;;19.65;3.83;;;;;;;3.34;79.66;101167.22;10457824;28;20044;-76
2023/01/13 06:48:50;;;;;;;26.30;4.63;;;;;;;3.23;79.19;101159.22;10457632;28;20053;-74
2023/01/13 06:53:51;;;;;;;27.60;3.60;;;;;;;3.40;78.51;101175.53;10456965;28;20045;-77
2023/01/13 06:58:51;;;;;;;40.88;4.30;;;;;;;3.45;78.67;101167.38;10457553;28;20132;-76
2023/01/13 07:03:52;;;;;;;35.58;4.20;;;;;;;3.41;78.58;101160.63;10456851;28;20052;-75
2023/01/13 07:08:53;;;;;;;17.10;4.13;;;;;;;3.87;78.41;101221.47;10456876;28;20065;-75
2023/01/13 07:19:14;;;;;;;26.52;5.05;;;;;;;3.89;78.63;101229.25;10456984;28;20040;-74
2023/01/13 07:24:15;;;;;;;29.77;4.07;;;;;;;3.77;78.67;101206.41;10456289;28;20448;-75
2023/01/13 07:29:15;;;;;;;19.55;3.78;;;;;;;3.75;78.48;101179.41;10455286;28;20095;-76
2023/01/13 07:34:16;;;;;;;17.08;3.30;;;;;;;4.00;77.82;101221.47;10456028;28;20045;-76
2023/01/13 07:39:17;;;;;;;20.80;3.53;;;;;;;4.18;77.33;101234.31;10454969;28;20101;-76
2023/01/13 07:44:18;;;;;;;25.98;3.60;;;;;;;4.02;77.04;101202.97;10455713;28;20039;-76
2023/01/13 07:49:18;;;;;;;25.35;3.97;;;;;;;3.62;77.20;101132.06;10454889;28;20420;-76
2023/01/13 07:54:19;;;;;;;27.20;4.00;;;;;;;4.19;77.38;101228.09;10455263;28;20060;-75
2023/01/13 07:59:20;;;;;;;29.63;4.38;;;;;;;4.07;78.27;101221.91;10454425;28;20052;-77
2023/01/13 08:04:20;;;;;;;42.22;4.57;;;;;;;3.88;77.87;101160.06;10454771;28;20037;-75
2023/01/13 08:09:21;;;;;;;22.73;4.38;;;;;;;4.16;77.98;101228.31;10453748;28;20064;-76
2023/01/13 08:14:22;;;;;;;30.80;4.03;;;;;;;3.57;77.94;101129.78;10454678;28;20049;-75
2023/01/13 08:19:22;;;;;;;19.75;3.95;;;;;;;4.00;78.19;101203.06;10454981;28;20060;-75
2023/01/13 08:24:23;;;;;;;23.08;4.28;;;;;;;3.97;79.09;101198.00;10454946;28;20216;-76
2023/01/13 08:29:24;;;;;;;24.92;5.35;;;;;;;2.90;78.49;101006.50;10454196;28;20049;-76
2023/01/13 08:34:24;;;;;;;21.30;5.13;;;;;;;3.99;78.26;101192.66;10454738;28;20473;-76
2023/01/13 08:39:25;;;;;;;28.05;4.65;;;;;;;3.69;79.31;101151.75;10454596;28;20033;-77
2023/01/13 08:44:28;;;;;;;20.17;4.65;;;;;;;3.92;79.48;101178.25;10460447;28;20412;-75
2023/01/13 08:49:29;;;;;;;22.75;4.03;;;;;;;2.22;79.18;100902.56;10461714;28;20412;-74
2023/01/13 08:54:30;;;;;;;24.75;4.78;;;;;;;3.91;79.49;101171.31;10462027;28;20041;-75
2023/01/13 08:59:31;;;;;;;22.35;4.30;;;;;;;3.62;79.26;101124.19;10461340;28;20128;-75
2023/01/13 09:04:32;;;;;;;28.73;4.95;;;;;;;3.55;79.38;101087.00;10461259;28;20075;-75
2023/01/13 09:09:32;;;;;;;16.83;3.95;;;;;;;4.05;79.54;101151.00;10461721;28;20087;-74
2023/01/13 09:14:36;;;;;;;20.08;4.22;;;;;;;3.97;78.87;101136.72;10461240;28;20037;-75
2023/01/13 09:19:37;;;;;;;21.25;4.28;;;;;;;3.83;78.66;101082.50;10461259;28;20043;-76
2023/01/13 09:24:37;;;;;;;20.42;4.75;;;;;;;3.74;78.43;101055.06;10460972;28;20041;-76
2023/01/13 09:29:38;;;;;;;24.67;4.90;;;;;;;3.74;78.13;101035.78;10460922;28;20111;-76
2023/01/13 09:39:59;;;;;;;28.77;4.30;;;;;;;4.44;78.07;101120.22;10459709;28;20048;-76
2023/01/13 09:45:05;;;;;;;21.15;4.43;;;;;;;4.46;77.87;101113.09;10460298;28;20072;-75
2023/01/13 09:50:29;;;;;;;22.95;4.32;;;;;;;4.57;78.47;101104.41;10460542;28;20041;-76
2023/01/13 09:55:35;;;;;;;15.32;3.35;;;;;;;4.69;76.99;101114.03;10459300;28;20420;-75
2023/01/13 10:00:44;;;;;;;18.60;3.88;;;;;;;4.73;77.34;101094.47;10459543;28;20043;-75
2023/01/13 10:06:17;;;;;;;22.27;4.28;;;;;;;4.64;77.22;101049.56;10459443;28;20052;-75
2023/01/13 10:17:11;;;;;;;18.20;3.83;;;;;;;5.03;76.26;101058.94;10459883;28;20056;-75
2023/01/13 10:22:23;;;;;;;15.15;3.40;;;;;;;5.11;76.18;101066.22;10433147;28;20098;-78
2023/01/13 10:27:36;;;;;;;24.88;3.58;;;;;;;4.34;76.01;100956.97;10458452;28;20063;-75
2023/01/13 10:32:37;;;;;;;25.20;4.10;;;;;;;4.91;76.59;101055.41;10458439;28;20094;-75
2023/01/13 10:37:38;;;;;;;17.17;3.67;;;;;;;4.87;76.10;101035.50;10459182;28;20037;-75
2023/01/13 10:42:40;;;;;;;31.92;4.35;;;;;;;5.07;77.07;101068.28;10457940;28;20063;-75
2023/01/13 10:47:41;;;;;;;26.42;4.55;;;;;;;4.63;76.10;100976.81;10457140;28;20060;-75
2023/01/13 10:53:18;;;;;;;24.40;4.28;;;;;;;5.32;76.23;101069.06;10457172;28;20052;-77
2023/01/13 10:58:20;;;;;;;23.67;4.30;;;;;;;4.79;75.63;100987.88;10425045;28;20056;-76
2023/01/13 11:03:23;;;;;;;28.33;4.53;;;;;;;5.00;75.22;101020.50;10456562;28;20052;-76
2023/01/13 11:08:46;;;;;;;21.50;4.03;;;;;;;5.37;75.64;101067.75;10457178;28;20067;-76
2023/01/13 11:19:16;;;;;;;26.55;3.97;;;;;;;5.15;75.29;101052.75;10455936;28;20527;-75
2023/01/13 11:24:31;;;;;;;23.73;4.57;;;;;;;5.13;75.24;101054.63;10455320;28;20033;-76
2023/01/13 11:29:40;;;;;;;25.88;4.07;;;;;;;5.20;76.28;101071.66;10456256;28;20091;-76
2023/01/13 11:34:44;;;;;;;32.50;3.97;;;;;;;4.21;76.05;100939.56;10456574;28;20041;-74
2023/01/13 11:39:56;;;;;;;;;;;;;;;5.19;75.79;101079.69;10456763;28;20434;-74
2023/01/13 11:45:15;;;;;;;28.70;4.80;;;;;;;4.81;76.41;101041.25;10455686;28;19969;-75
2023/01/13 11:50:27;;;;;;;29.60;4.80;;;;;;;4.73;76.54;101047.09;10455111;28;20520;-75
2023/01/13 11:55:45;;;;;;;32.35;4.82;;;;;;;4.00;76.28;100921.75;10456063;28;20546;-76
2023/01/13 12:00:52;;;;;;;20.02;4.28;;;;;;;4.93;77.02;101087.72;10452375;28;20041;-75
2023/01/13 12:06:09;;;;;;;32.42;4.68;;;;;;;4.91;76.84;101092.28;10437681;28;20094;-73
2023/01/13 12:11:23;;;;;;;30.35;4.57;;;;;;;4.58;77.03;101046.41;10448185;28;20067;-74
2023/01/13 12:16:27;;;;;;;28.15;4.72;;;;;;;4.26;76.51;100993.50;10447820;28;20055;-75
2023/01/13 12:21:32;;;;;;;24.80;4.60;;;;;;;4.86;76.80;101094.41;10449386;28;20131;-75
2023/01/13 12:26:39;;;;;;;21.63;3.75;;;;;;;4.83;77.67;101078.81;10455022;28;20131;-74
2023/01/13 12:31:42;;;;;;;18.77;4.45;;;;;;;4.78;76.88;101076.50;10444616;28;20047;-75
2023/01/13 12:37:12;;;;;;;20.25;4.68;;;;;;;5.02;76.59;101094.94;10439895;28;20085;-76
2023/01/13 12:47:50;;;;;;;21.33;3.95;;;;;;;4.33;76.14;100980.75;10452072;28;20074;-75
2023/01/13 12:52:57;;;;;;;20.98;4.53;;;;;;;4.80;74.92;101064.09;10451609;28;20132;-74
2023/01/13 12:58:01;;;;;;;18.67;4.20;;;;;;;4.95;75.00;101087.63;10407658;28;20056;-74
2023/01/13 13:03:23;;;;;;;;;;;;;;;5.08;73.76;101113.88;10427223;28;20501;-75
2023/01/13 13:08:31;;;;;;;13.30;3.67;;;;;;;4.48;74.08;101026.13;10448094;28;20402;-74
2023/01/13 13:13:44;;;;;;;17.08;3.88;;;;;;;4.54;74.57;101025.69;10442461;28;20436;-75
2023/01/13 13:18:45;;;;;;;22.73;4.03;;;;;;;4.30;74.36;101002.00;10449107;28;20053;-73
2023/01/13 13:23:52;;;;;;;26.55;5.55;;;;;;;4.91;75.45;101118.59;10443102;28;20446;-74
2023/01/13 13:28:58;;;;;;;39.30;5.43;;;;;;;4.82;76.94;101114.00;10453468;28;20040;-74
2023/01/13 13:34:20;;;;;;;28.80;5.60;;;;;;;4.62;78.83;101096.19;10451490;28;20103;-76
2023/01/13 13:50:35;;;;;;;32.45;5.85;;;;;;;4.34;79.15;101087.66;10415071;28;20073;-72
2023/01/13 13:55:37;;;;;;;24.52;4.95;;;;;;;4.45;79.57;101105.28;10422384;28;20076;-73
2023/01/13 14:00:38;;;;;;;23.63;4.28;;;;;;;4.08;80.28;101055.31;10412411;28;20119;-73
2023/01/13 14:06:11;;;;;;;30.42;4.60;;;;;;;4.38;81.05;101109.31;10418136;28;20382;-73
2023/01/13 14:11:27;;;;;;;33.38;5.43;;;;;;;4.16;81.78;101081.03;10415876;28;20049;-73
2023/01/13 14:16:27;;;;;;;30.10;5.15;;;;;;;4.27;81.81;101107.44;10449754;28;20135;-73
2023/01/13 14:21:29;;;;;;;17.95;4.70;;;;;;;4.32;82.89;101139.53;10458061;28;20136;-74
2023/01/13 14:26:31;;;;;;;37.38;6.50;;;;;;;4.08;83.64;101114.00;10458271;28;20041;-73
2023/01/13 14:31:33;;;;;;;36.15;5.63;;;;;;;4.06;84.00;101126.41;10458478;28;20037;-73
2023/01/13 14:36:40;;;;;;;30.88;5.68;;;;;;;3.73;84.36;101071.75;10456724;28;20049;-74
2023/01/13 14:41:41;;;;;;;24.77;4.85;;;;;;;4.15;85.01;101145.94;10457529;28;20037;-74
2023/01/13 14:46:45;;;;;;;18.75;4.25;;;;;;;4.01;85.76;101133.78;10456729;28;20044;-74
2023/01/13 14:51:45;;;;;;;25.85;4.43;;;;;;;4.08;86.04;101179.72;10457134;28;20048;-73
2023/01/13 14:56:52;;;;;;;29.10;4.85;;;;;;;4.07;86.27;101156.19;10455677;28;20040;-74
2023/01/13 15:01:53;;;;;;;37.17;5.30;;;;;;;3.88;86.68;101136.41;10456820;28;20391;-73
2023/01/13 15:06:56;;;;;;;24.77;5.80;;;;;;;3.88;86.80;101122.41;10440010;28;20056;-74
2023/01/13 15:11:57;;;;;;;19.05;4.07;;;;;;;3.92;86.94;101147.56;10417945;28;20087;-73
2023/01/13 15:16:58;;;;;;;28.85;5.00;;;;;;;3.59;87.30;101113.88;10457178;28;20086;-74
2023/01/13 15:21:59;;;;;;;34.75;5.25;;;;;;;3.67;87.47;101151.84;10456174;28;20049;-75
2023/01/13 15:27:02;;;;;;;31.15;5.13;;;;;;;3.39;88.10;101123.97;10455920;28;20033;-74
2023/01/13 15:32:03;;;;;;;23.10;4.90;;;;;;;2.86;87.74;101040.91;10452307;28;20075;-73
2023/01/13 15:37:04;;;;;;;36.33;5.50;;;;;;;3.54;88.25;101164.13;10444828;28;20500;-73
2023/01/13 15:47:26;;;;;;;21.30;4.90;;;;;;;2.95;89.45;101088.34;10402937;28;20072;-73
2023/01/13 15:52:27;;;;;;;28.48;5.32;;;;;;;3.41;89.06;101161.50;10408680;28;20555;-73
2023/01/13 15:57:31;;;;;;;25.80;5.47;;;;;;;3.30;90.70;101156.09;10411696;28;20039;-73
2023/01/13 16:02:32;;;;;;;30.48;5.78;;;;;;;3.26;90.66;101161.63;10411094;28;20052;-76
2023/01/13 16:07:33;;;;;;;34.15;5.63;;;;;;;2.93;90.57;101113.03;10414906;28;20045;-76
2023/01/13 16:12:34;;;;;;;33.30;5.63;;;;;;;2.53;90.90;101042.16;10398862;28;20096;-75
2023/01/13 16:17:36;;;;;;;29.80;5.53;;;;;;;2.71;91.71;101080.31;10390979;28;20041;-76
2023/01/13 16:22:37;;;;;;;31.02;5.63;;;;;;;2.50;91.52;101042.34;10391129;28;20052;-75
2023/01/13 16:27:38;;;;;;;32.53;5.95;;;;;;;3.16;92.33;101153.53;10390005;28;20038;-76
2023/01/13 16:32:38;;;;;;;29.25;5.22;;;;;;;2.49;91.81;101040.69;10387794;28;20044;-75
2023/01/13 16:37:39;;;;;;;27.10;5.43;;;;;;;1.99;91.52;100953.84;10390797;28;20052;-74
2023/01/13 16:42:40;;;;;;;29.55;5.65;;;;;;;2.99;92.34;101141.50;10390382;28;20049;-76
2023/01/13 16:47:41;;;;;;;27.90;4.95;;;;;;;2.17;92.23;100992.94;10394629;28;20492;-75
2023/01/13 16:52:42;;;;;;;33.83;6.15;;;;;;;3.03;93.09;101140.38;10389057;28;20091;-76
2023/01/13 16:57:42;;;;;;;29.45;5.30;;;;;;;2.76;92.96;101097.56;10388132;28;20038;-75
2023/01/13 17:02:43;;;;;;;24.20;5.45;;;;;;;3.11;92.92;101143.34;10387955;28;20179;-74
2023/01/13 17:07:45;;;;;;;29.83;5.35;;;;;;;2.94;92.54;101127.84;10396570;28;20056;-74
2023/01/13 17:12:46;;;;;;;25.05;5.70;;;;;;;3.16;93.05;101150.91;10395823;28;20054;-76
2023/01/13 17:17:50;;;;;;;31.17;5.63;;;;;;;3.06;93.50;101134.91;10395415;28;20048;-76
2023/01/13 17:22:51;;;;;;;23.15;4.45;;;;;;;2.64;92.72;101054.59;10400788;28;20072;-75
2023/01/13 17:27:52;;;;;;;25.77;4.88;;;;;;;2.41;93.37;101006.25;10395753;28;20044;-75
2023/01/13 17:32:52;;;;;;;35.35;5.03;;;;;;;3.24;93.15;101139.91;10394875;28;20049;-76
2023/01/13 17:37:53;;;;;;;28.52;5.55;;;;;;;2.55;93.02;101029.78;10413849;28;20037;-75
2023/01/13 17:42:56;;;;;;;24.77;4.63;;;;;;;2.58;93.03;101031.38;10395986;28;20057;-77
2023/01/13 17:47:57;;;;;;;39.30;5.68;;;;;;;3.25;92.75;101138.97;10409476;28;20037;-74
2023/01/13 17:52:57;;;;;;;27.42;5.03;;;;;;;2.58;92.67;101019.09;10377042;28;20088;-75
2023/01/13 17:57:58;;;;;;;24.33;5.15;;;;;;;3.22;93.47;101124.25;10377319;28;20100;-74
2023/01/13 18:02:59;;;;;;;28.10;5.05;;;;;;;2.65;92.48;101020.38;10376322;28;20468;-75
2023/01/13 18:07:59;;;;;;;19.75;4.80;;;;;;;3.29;92.87;101124.66;10376667;28;20037;-74
2023/01/13 18:13:04;;;;;;;24.42;4.93;;;;;;;3.18;93.20;101112.28;10376003;28;20037;-74
2023/01/13 18:18:04;;;;;;;16.23;4.38;;;;;;;3.14;92.79;101106.38;10376440;28;20053;-74
2023/01/13 18:28:26;;;;;;;27.48;5.18;;;;;;;3.25;93.49;101133.72;10376383;28;20037;-72
2023/01/13 18:33:27;;;;;;;14.75;4.45;;;;;;;2.78;93.90;101056.28;10376410;28;20129;-76
2023/01/13 18:38:28;;;;;;;24.05;4.85;;;;;;;3.15;93.51;101105.44;10376288;28;20064;-76
2023/01/13 18:43:32;;;;;;;16.50;5.10;;;;;;;3.29;93.85;101119.41;10374972;28;20045;-75
2023/01/13 18:48:32;;;;;;;27.15;5.65;;;;;;;3.24;93.38;101111.03;10375720;28;20545;-74
2023/01/13 18:53:33;;;;;;;20.67;4.97;;;;;;;3.34;94.11;101126.06;10374795;28;20042;-74
2023/01/13 18:58:34;;;;;;;25.50;4.95;;;;;;;2.55;94.60;100995.69;10375428;28;20049;-74
2023/01/13 19:03:35;;;;;;;23.80;4.88;;;;;;;2.65;94.83;101020.38;10373474;28;20042;-74
2023/01/13 19:08:36;;;;;;;30.77;5.57;;;;;;;3.11;95.35;101111.84;10374492;28;20046;-74
2023/01/13 19:13:36;;;;;;;20.60;5.32;;;;;;;3.02;95.36;101099.31;10409089;28;20128;-75
2023/01/13 19:18:37;;;;;;;24.95;5.28;;;;;;;3.09;95.27;101111.09;10429035;28;20040;-74
2023/01/13 19:23:38;;;;;;;17.60;4.85;;;;;;;2.66;94.98;101027.31;10455280;28;20501;-74
2023/01/13 19:28:39;;;;;;;23.35;5.93;;;;;;;3.00;95.61;101085.44;10455019;28;20118;-75
2023/01/13 19:33:40;;;;;;;30.20;6.40;;;;;;;3.20;95.40;101124.34;10456108;28;20094;-74
2023/01/13 19:38:41;;;;;;;30.90;6.65;;;;;;;3.06;96.33;101102.59;10455962;28;20040;-74
2023/01/13 19:49:01;;;;;;;23.63;5.68;;;;;;;3.12;95.89;101102.19;10454741;28;20040;-74
2023/01/13 19:54:02;;;;;;;34.28;6.50;;;;;;;2.76;95.52;101043.28;10454248;28;20041;-75
2023/01/13 19:59:02;;;;;;;35.55;6.50;;;;;;;3.25;95.80;101118.78;10454603;28;20059;-74
2023/01/13 20:04:05;;;;;;;32.28;6.60;;;;;;;2.82;96.25;101045.50;10454675;28;20037;-74
2023/01/13 20:09:06;;;;;;;32.03;5.95;;;;;;;3.19;96.31;101099.03;10455205;28;20497;-75
2023/01/13 20:14:07;;;;;;;44.67;7.18;;;;;;;3.28;96.28;101108.06;10454257;28;20053;-74
2023/01/13 20:19:08;;;;;;;30.25;6.10;;;;;;;3.30;96.50;101115.88;10453620;28;20040;-74
2023/01/13 20:24:18;;;;;;;43.28;5.90;;;;;;;2.75;96.39;101015.34;10453694;28;20044;-75
2023/01/13 20:29:22;;;;;;;35.97;7.15;;;;;;;2.97;96.14;101068.13;10454472;28;20404;-75
2023/01/13 20:34:23;;;;;;;39.75;6.90;;;;;;;3.03;96.07;101071.28;10454019;28;20047;-75
2023/01/13 20:39:25;;;;;;;30.88;6.38;;;;;;;3.18;96.17;101101.78;10459023;28;20045;-75
2023/01/13 20:44:26;;;;;;;39.47;7.00;;;;;;;3.05;96.49;101069.38;10461839;28;20083;-75
2023/01/13 20:49:27;;;;;;;40.33;6.90;;;;;;;3.31;96.52;101101.78;10462629;28;20106;-75
2023/01/13 20:54:28;;;;;;;34.65;7.00;;;;;;;3.01;96.11;101060.88;10462841;28;20090;-75
2023/01/13 20:59:29;;;;;;;39.50;7.57;;;;;;;3.15;96.13;101087.06;10461678;28;20045;-75
2023/01/13 21:04:29;;;;;;;35.25;6.45;;;;;;;3.30;95.81;101089.59;10461394;28;20120;-75
2023/01/13 21:09:31;;;;;;;44.83;6.95;;;;;;;2.54;96.01;100974.81;10461084;28;20060;-75
2023/01/13 21:19:51;;;;;;;22.48;6.28;;;;;;;2.84;95.65;101024.41;10461468;28;20045;-75
2023/01/13 21:24:52;;;;;;;34.75;6.45;;;;;;;3.34;95.11;101114.72;10459830;28;20039;-74
2023/01/13 21:29:52;;;;;;;18.92;5.63;;;;;;;3.16;94.30;101080.84;10460908;28;20045;-74
2023/01/13 21:34:53;;;;;;;30.80;6.57;;;;;;;3.12;94.12;101070.69;10460177;28;20040;-75
2023/01/13 21:39:54;;;;;;;22.15;7.10;;;;;;;3.26;93.45;101109.13;10459889;28;20052;-75
2023/01/13 21:50:35;;;;;;;23.95;6.80;;;;;;;3.23;93.06;101119.81;10459813;28;20481;-75
2023/01/13 21:55:36;;;;;;;25.52;7.35;;;;;;;2.54;92.56;101012.34;10460243;28;20049;-75
2023/01/13 22:00:39;;;;;;;20.52;7.20;;;;;;;3.08;93.13;101125.16;10459622;28;20124;-74
2023/01/13 22:05:40;;;;;;;23.45;7.35;;;;;;;2.79;92.85;101086.84;10459576;28;20044;-75
2023/01/13 22:10:56;;;;;;;22.98;7.53;;;;;;;2.76;93.33;101087.06;10459306;28;20527;-74
2023/01/13 22:16:03;;;;;;;21.85;7.70;;;;;;;2.81;92.57;101108.56;10459035;28;20041;-75
2023/01/13 22:21:04;;;;;;;16.25;8.02;;;;;;;2.57;92.50;101080.34;10459345;28;20044;-74
2023/01/13 22:26:06;;;;;;;18.23;7.43;;;;;;;2.08;92.64;101032.81;10459142;28;20497;-76
2023/01/13 22:31:12;;;;;;;22.60;8.82;;;;;;;2.48;92.60;101115.91;10458657;28;20120;-74
2023/01/13 22:36:14;;;;;;;13.55;7.50;;;;;;;2.51;92.55;101125.31;10459081;28;20377;-75
2023/01/13 22:41:15;;;;;;;18.13;8.00;;;;;;;2.22;92.55;101093.94;10458220;28;20416;-75
2023/01/13 22:46:17;;;;;;;26.50;9.48;;;;;;;2.37;92.53;101128.00;10458064;28;20484;-75
2023/01/13 22:51:18;;;;;;;18.90;8.52;;;;;;;1.89;92.51;101056.72;10458384;28;20044;-75
2023/01/13 22:56:21;;;;;;;18.98;9.13;;;;;;;1.80;92.24;101039.78;10456956;28;20128;-74
2023/01/13 23:01:24;;;;;;;18.80;9.90;;;;;;;2.38;92.07;101145.41;10457110;28;20190;-73
2023/01/13 23:06:27;;;;;;;23.92;9.88;;;;;;;2.37;92.61;101141.94;10457332;28;20041;-74
2023/01/13 23:11:28;;;;;;;20.60;10.48;;;;;;;2.26;92.06;101139.97;10457501;28;20053;-74
2023/01/13 23:16:33;;;;;;;18.60;9.23;;;;;;;2.40;92.23;101162.72;10457400;28;20044;-74
2023/01/13 23:21:35;;;;;;;;;;;;;;;2.44;91.67;101152.88;10456676;28;20106;-74
2023/01/13 23:26:36;;;;;;;22.33;9.93;;;;;;;2.33;91.70;101160.56;10455885;28;19938;-76
2023/01/13 23:31:37;;;;;;;21.95;10.90;;;;;;;1.67;92.03;101058.00;10455735;28;20065;-74
2023/01/13 23:36:40;;;;;;;22.55;11.00;;;;;;;2.17;91.53;101143.16;10456186;28;20468;-75
2023/01/13 23:41:41;;;;;;;19.02;10.02;;;;;;;1.89;91.86;101114.38;10454526;28;20412;-74
2023/01/13 23:46:41;;;;;;;21.13;10.75;;;;;;;2.11;92.07;101148.78;10454943;28;20048;-74
2023/01/13 23:51:42;;;;;;;19.63;9.75;;;;;;;1.81;91.93;101110.41;10453766;28;20043;-74
2023/01/13 23:56:43;;;;;;;16.70;10.18;;;;;;;1.35;91.69;101034.63;10455406;28;20469;-74
